PWSweather.com
Personal Weather Stations
Station Observations
WATERF01
WaterfordIE

WaterfordIE

Lat: 52.2412507, Lon: -7.1414691

Elevation: 65

Station Type: Davis Vantage Vue

www.waterfordweather.com

High Low Average
Temperature 70.4°F21.3°C 59.7°F15.4°C 64.0°F17.8°C
Dew Point 63.4°F17.4°C 55.5°F13.1°C 59.0°F15.0°C
Winds 10.4 mph 16.7 kmh Calm Calm 5.0 mph W8.0 kmh W
Wind Gusts 20.7 mph33.3 kmh -- 8.0 mph12.9 kmh
Humidity 88% 76% 84%
Pressure 30.11 in1019.6 mb 30.01 in1016.3 mb -
Precipitation 0.00 in0.0 mm - -
Hour Temp Dew Point Humidity Winds Wind Gusts Pressure Precip Precip Rate Daily Precip Total
12:00 AM 62.7°F17.1°C 57.5°F14.2°C 83% 3.5 mph NNW5.6 kmh NNW 6.9 mph11.1 kmh 30.11 in1019.6 mb - 0.00 in0.0 mm 0.00 in0.0 mm
12:10 AM 62.5°F16.9°C 57.3°F14.1°C 83% 4.6 mph NNW7.4 kmh NNW 8.1 mph13.0 kmh 30.10 in1019.3 mb - 0.00 in0.0 mm 0.00 in0.0 mm
12:30 AM 62.3°F16.8°C 57.1°F13.9°C 83% 4.6 mph NNW7.4 kmh NNW 8.1 mph13.0 kmh 30.10 in1019.3 mb - 0.00 in0.0 mm 0.00 in0.0 mm
12:40 AM 62.2°F16.8°C 57.3°F14.1°C 84% 4.6 mph NNW7.4 kmh NNW 5.8 mph9.3 kmh 30.10 in1019.3 mb - 0.00 in0.0 mm 0.00 in0.0 mm
12:50 AM 62.1°F16.7°C 57.2°F14.0°C 84% 2.3 mph NW3.7 kmh NW 4.6 mph7.4 kmh 30.10 in1019.3 mb - 0.00 in0.0 mm 0.00 in0.0 mm
01:00 AM 62.0°F16.7°C 57.1°F13.9°C 84% 2.3 mph NNW3.7 kmh NNW 3.5 mph5.6 kmh 30.10 in1019.3 mb - 0.00 in0.0 mm 0.00 in0.0 mm
01:10 AM 62.0°F16.7°C 57.1°F13.9°C 84% Calm Calm 1.2 mph1.9 kmh 30.10 in1019.3 mb - 0.00 in0.0 mm 0.00 in0.0 mm
01:20 AM 62.0°F16.7°C 57.1°F13.9°C 84% Calm Calm -- 30.10 in1019.3 mb - 0.00 in0.0 mm 0.00 in0.0 mm
01:30 AM 61.9°F16.6°C 57.0°F13.9°C 84% 2.3 mph NW3.7 kmh NW 6.9 mph11.1 kmh 30.10 in1019.3 mb - 0.00 in0.0 mm 0.00 in0.0 mm
01:40 AM 61.7°F16.5°C 56.8°F13.8°C 84% 3.5 mph NNW5.6 kmh NNW 5.8 mph9.3 kmh 30.10 in1019.3 mb - 0.00 in0.0 mm 0.00 in0.0 mm
01:50 AM 61.4°F16.3°C 56.5°F13.6°C 84% 3.5 mph NNW5.6 kmh NNW 5.8 mph9.3 kmh 30.10 in1019.3 mb - 0.00 in0.0 mm 0.00 in0.0 mm
02:00 AM 61.2°F16.2°C 56.7°F13.7°C 85% 2.3 mph NW3.7 kmh NW 2.3 mph3.7 kmh 30.10 in1019.3 mb - 0.00 in0.0 mm 0.00 in0.0 mm
02:10 AM 61.1°F16.2°C 56.6°F13.7°C 85% Calm Calm -- 30.10 in1019.3 mb - 0.00 in0.0 mm 0.00 in0.0 mm
02:20 AM 61.0°F16.1°C 56.5°F13.6°C 85% Calm Calm -- 30.10 in1019.3 mb - 0.00 in0.0 mm 0.00 in0.0 mm
02:30 AM 61.0°F16.1°C 56.5°F13.6°C 85% 1.2 mph NNW1.9 kmh NNW 5.8 mph9.3 kmh 30.10 in1019.3 mb - 0.00 in0.0 mm 0.00 in0.0 mm
02:40 AM 60.8°F16.0°C 56.3°F13.5°C 85% Calm Calm -- 30.10 in1019.3 mb - 0.00 in0.0 mm 0.00 in0.0 mm
02:50 AM 60.8°F16.0°C 56.3°F13.5°C 85% 1.2 mph NNW1.9 kmh NNW 4.6 mph7.4 kmh 30.10 in1019.3 mb - 0.00 in0.0 mm 0.00 in0.0 mm
03:00 AM 60.5°F15.8°C 56.0°F13.3°C 85% 2.3 mph NW3.7 kmh NW 5.8 mph9.3 kmh 30.09 in1019.0 mb - 0.00 in0.0 mm 0.00 in0.0 mm
03:10 AM 60.5°F15.8°C 56.2°F13.4°C 86% Calm Calm -- 30.09 in1019.0 mb - 0.00 in0.0 mm 0.00 in0.0 mm
03:20 AM 60.4°F15.8°C 56.2°F13.4°C 86% Calm Calm -- 30.09 in1019.0 mb - 0.00 in0.0 mm 0.00 in0.0 mm
03:30 AM 60.4°F15.8°C 56.2°F13.4°C 86% 2.3 mph NNW3.7 kmh NNW 4.6 mph7.4 kmh 30.09 in1019.0 mb - 0.00 in0.0 mm 0.00 in0.0 mm
03:40 AM 60.4°F15.8°C 56.2°F13.4°C 86% Calm Calm -- 30.08 in1018.6 mb - 0.00 in0.0 mm 0.00 in0.0 mm
03:50 AM 60.3°F15.7°C 56.1°F13.4°C 86% Calm Calm -- 30.08 in1018.6 mb - 0.00 in0.0 mm 0.00 in0.0 mm
04:00 AM 60.5°F15.8°C 56.3°F13.5°C 86% Calm Calm -- 30.08 in1018.6 mb - 0.00 in0.0 mm 0.00 in0.0 mm
04:10 AM 60.5°F15.8°C 56.3°F13.5°C 86% Calm Calm -- 30.08 in1018.6 mb - 0.00 in0.0 mm 0.00 in0.0 mm
04:20 AM 60.4°F15.8°C 56.2°F13.4°C 86% Calm Calm -- 30.08 in1018.6 mb - 0.00 in0.0 mm 0.00 in0.0 mm
04:30 AM 60.3°F15.7°C 56.1°F13.4°C 86% Calm Calm -- 30.08 in1018.6 mb - 0.00 in0.0 mm 0.00 in0.0 mm
04:40 AM 60.3°F15.7°C 56.1°F13.4°C 86% Calm Calm -- 30.08 in1018.6 mb - 0.00 in0.0 mm 0.00 in0.0 mm
04:50 AM 60.5°F15.8°C 56.3°F13.5°C 86% Calm Calm -- 30.08 in1018.6 mb - 0.00 in0.0 mm 0.00 in0.0 mm
05:00 AM 60.5°F15.8°C 56.3°F13.5°C 86% Calm Calm -- 30.08 in1018.6 mb - 0.00 in0.0 mm 0.00 in0.0 mm
05:10 AM 60.5°F15.8°C 56.3°F13.5°C 86% Calm Calm -- 30.09 in1019.0 mb - 0.00 in0.0 mm 0.00 in0.0 mm
05:20 AM 60.4°F15.8°C 56.2°F13.4°C 86% Calm Calm -- 30.09 in1019.0 mb - 0.00 in0.0 mm 0.00 in0.0 mm
05:30 AM 60.3°F15.7°C 56.1°F13.4°C 86% Calm Calm -- 30.09 in1019.0 mb - 0.00 in0.0 mm 0.00 in0.0 mm
05:40 AM 60.5°F15.8°C 56.3°F13.5°C 86% Calm Calm -- 30.09 in1019.0 mb - 0.00 in0.0 mm 0.00 in0.0 mm
05:50 AM 60.5°F15.8°C 56.3°F13.5°C 86% Calm Calm -- 30.09 in1019.0 mb - 0.00 in0.0 mm 0.00 in0.0 mm
06:00 AM 60.6°F15.9°C 56.4°F13.6°C 86% 2.3 mph SW3.7 kmh SW 4.6 mph7.4 kmh 30.09 in1019.0 mb - 0.00 in0.0 mm 0.00 in0.0 mm
06:10 AM 60.5°F15.8°C 56.3°F13.5°C 86% 2.3 mph SW3.7 kmh SW 4.6 mph7.4 kmh 30.09 in1019.0 mb - 0.00 in0.0 mm 0.00 in0.0 mm
06:20 AM 60.5°F15.8°C 56.3°F13.5°C 86% 2.3 mph WSW3.7 kmh WSW 5.8 mph9.3 kmh 30.09 in1019.0 mb - 0.00 in0.0 mm 0.00 in0.0 mm
06:30 AM 60.1°F15.6°C 55.9°F13.3°C 86% 2.3 mph WNW3.7 kmh WNW 4.6 mph7.4 kmh 30.09 in1019.0 mb - 0.00 in0.0 mm 0.00 in0.0 mm
06:40 AM 59.8°F15.4°C 55.6°F13.1°C 86% 3.5 mph W5.6 kmh W 5.8 mph9.3 kmh 30.09 in1019.0 mb - 0.00 in0.0 mm 0.00 in0.0 mm
06:50 AM 59.7°F15.4°C 55.5°F13.1°C 86% 2.3 mph W3.7 kmh W 2.3 mph3.7 kmh 30.09 in1019.0 mb - 0.00 in0.0 mm 0.00 in0.0 mm
07:00 AM 59.9°F15.5°C 55.7°F13.2°C 86% 3.5 mph W5.6 kmh W 5.8 mph9.3 kmh 30.09 in1019.0 mb - 0.00 in0.0 mm 0.00 in0.0 mm
07:10 AM 60.0°F15.6°C 55.8°F13.2°C 86% 1.2 mph WSW1.9 kmh WSW 1.2 mph1.9 kmh 30.09 in1019.0 mb - 0.00 in0.0 mm 0.00 in0.0 mm
07:20 AM 60.5°F15.8°C 56.3°F13.5°C 86% Calm Calm 1.2 mph1.9 kmh 30.09 in1019.0 mb - 0.00 in0.0 mm 0.00 in0.0 mm
07:30 AM 61.3°F16.3°C 56.7°F13.7°C 85% 3.5 mph W5.6 kmh W 8.1 mph13.0 kmh 30.09 in1019.0 mb - 0.00 in0.0 mm 0.00 in0.0 mm
07:40 AM 61.8°F16.6°C 57.2°F14.0°C 85% 5.8 mph W9.3 kmh W 8.1 mph13.0 kmh 30.10 in1019.3 mb - 0.00 in0.0 mm 0.00 in0.0 mm
07:50 AM 62.5°F16.9°C 57.6°F14.2°C 84% 2.3 mph WSW3.7 kmh WSW 8.1 mph13.0 kmh 30.09 in1019.0 mb - 0.00 in0.0 mm 0.00 in0.0 mm
08:00 AM 63.0°F17.2°C 58.1°F14.5°C 84% 2.3 mph WNW3.7 kmh WNW 5.8 mph9.3 kmh 30.09 in1019.0 mb - 0.00 in0.0 mm 0.00 in0.0 mm
08:10 AM 63.3°F17.4°C 58.1°F14.5°C 83% 5.8 mph W9.3 kmh W 8.1 mph13.0 kmh 30.10 in1019.3 mb - 0.00 in0.0 mm 0.00 in0.0 mm
08:20 AM 63.7°F17.6°C 58.4°F14.7°C 83% 2.3 mph WSW3.7 kmh WSW 9.2 mph14.8 kmh 30.09 in1019.0 mb - 0.00 in0.0 mm 0.00 in0.0 mm
08:30 AM 63.9°F17.7°C 58.3°F14.6°C 82% 2.3 mph W3.7 kmh W 5.8 mph9.3 kmh 30.10 in1019.3 mb - 0.00 in0.0 mm 0.00 in0.0 mm
08:40 AM 64.3°F17.9°C 58.7°F14.8°C 82% 4.6 mph NW7.4 kmh NW 5.8 mph9.3 kmh 30.10 in1019.3 mb - 0.00 in0.0 mm 0.00 in0.0 mm
08:50 AM 64.5°F18.1°C 58.9°F14.9°C 82% 3.5 mph WSW5.6 kmh WSW 9.2 mph14.8 kmh 30.10 in1019.3 mb - 0.00 in0.0 mm 0.00 in0.0 mm
09:00 AM 64.7°F18.2°C 59.1°F15.1°C 82% 4.6 mph W7.4 kmh W 9.2 mph14.8 kmh 30.10 in1019.3 mb - 0.00 in0.0 mm 0.00 in0.0 mm
09:10 AM 64.9°F18.3°C 59.3°F15.2°C 82% 5.8 mph SW9.3 kmh SW 8.1 mph13.0 kmh 30.10 in1019.3 mb - 0.00 in0.0 mm 0.00 in0.0 mm
09:20 AM 65.5°F18.6°C 59.5°F15.3°C 81% 4.6 mph WNW7.4 kmh WNW 6.9 mph11.1 kmh 30.10 in1019.3 mb - 0.00 in0.0 mm 0.00 in0.0 mm
09:30 AM 65.7°F18.7°C 59.7°F15.4°C 81% 4.6 mph WSW7.4 kmh WSW 8.1 mph13.0 kmh 30.09 in1019.0 mb - 0.00 in0.0 mm 0.00 in0.0 mm
09:40 AM 66.0°F18.9°C 60.0°F15.6°C 81% 5.8 mph WSW9.3 kmh WSW 8.1 mph13.0 kmh 30.10 in1019.3 mb - 0.00 in0.0 mm 0.00 in0.0 mm
09:50 AM 66.2°F19.0°C 60.2°F15.7°C 81% 5.8 mph SW9.3 kmh SW 9.2 mph14.8 kmh 30.09 in1019.0 mb - 0.00 in0.0 mm 0.00 in0.0 mm
10:00 AM 66.5°F19.2°C 60.1°F15.6°C 80% 5.8 mph WSW9.3 kmh WSW 11.5 mph18.5 kmh 30.09 in1019.0 mb - 0.00 in0.0 mm 0.00 in0.0 mm
10:10 AM 66.4°F19.1°C 60.0°F15.6°C 80% 4.6 mph NW7.4 kmh NW 9.2 mph14.8 kmh 30.09 in1019.0 mb - 0.00 in0.0 mm 0.00 in0.0 mm
10:20 AM 66.0°F18.9°C 59.7°F15.4°C 80% 6.9 mph SSW11.1 kmh SSW 11.5 mph18.5 kmh 30.09 in1019.0 mb - 0.00 in0.0 mm 0.00 in0.0 mm
10:30 AM 66.2°F19.0°C 60.2°F15.7°C 81% 5.8 mph NW9.3 kmh NW 10.4 mph16.7 kmh 30.09 in1019.0 mb - 0.00 in0.0 mm 0.00 in0.0 mm
10:40 AM 66.3°F19.1°C 60.0°F15.6°C 80% 6.9 mph SW11.1 kmh SW 10.4 mph16.7 kmh 30.09 in1019.0 mb - 0.00 in0.0 mm 0.00 in0.0 mm
10:50 AM 66.8°F19.3°C 60.4°F15.8°C 80% 5.8 mph SW9.3 kmh SW 13.8 mph22.2 kmh 30.09 in1019.0 mb - 0.00 in0.0 mm 0.00 in0.0 mm
11:00 AM 67.1°F19.5°C 60.4°F15.8°C 79% 5.8 mph SW9.3 kmh SW 8.1 mph13.0 kmh 30.08 in1018.6 mb - 0.00 in0.0 mm 0.00 in0.0 mm
11:10 AM 67.6°F19.8°C 60.9°F16.1°C 79% 5.8 mph W9.3 kmh W 9.2 mph14.8 kmh 30.08 in1018.6 mb - 0.00 in0.0 mm 0.00 in0.0 mm
11:20 AM 68.1°F20.1°C 61.3°F16.3°C 79% 3.5 mph NW5.6 kmh NW 5.8 mph9.3 kmh 30.08 in1018.6 mb - 0.00 in0.0 mm 0.00 in0.0 mm
11:30 AM 68.4°F20.2°C 61.3°F16.3°C 78% 8.1 mph W13.0 kmh W 12.7 mph20.4 kmh 30.07 in1018.3 mb - 0.00 in0.0 mm 0.00 in0.0 mm
11:40 AM 69.1°F20.6°C 61.9°F16.6°C 78% 5.8 mph WNW9.3 kmh WNW 12.7 mph20.4 kmh 30.07 in1018.3 mb - 0.00 in0.0 mm 0.00 in0.0 mm
11:50 AM 69.5°F20.8°C 62.3°F16.8°C 78% 8.1 mph W13.0 kmh W 15.0 mph24.1 kmh 30.07 in1018.3 mb - 0.00 in0.0 mm 0.00 in0.0 mm
12:00 PM 70.0°F21.1°C 62.4°F16.9°C 77% 8.1 mph WSW13.0 kmh WSW 13.8 mph22.2 kmh 30.07 in1018.3 mb - 0.00 in0.0 mm 0.00 in0.0 mm
12:10 PM 70.4°F21.3°C 62.5°F16.9°C 76% 8.1 mph WNW13.0 kmh WNW 13.8 mph22.2 kmh 30.07 in1018.3 mb - 0.00 in0.0 mm 0.00 in0.0 mm
12:20 PM 69.9°F21.1°C 62.3°F16.8°C 77% 6.9 mph W11.1 kmh W 11.5 mph18.5 kmh 30.07 in1018.3 mb - 0.00 in0.0 mm 0.00 in0.0 mm
12:30 PM 69.7°F20.9°C 62.9°F17.2°C 79% 5.8 mph WSW9.3 kmh WSW 8.1 mph13.0 kmh 30.07 in1018.3 mb - 0.00 in0.0 mm 0.00 in0.0 mm
12:40 PM 70.1°F21.2°C 62.9°F17.2°C 78% 4.6 mph WSW7.4 kmh WSW 8.1 mph13.0 kmh 30.07 in1018.3 mb - 0.00 in0.0 mm 0.00 in0.0 mm
12:50 PM 70.0°F21.1°C 62.4°F16.9°C 77% 10.4 mph SW16.7 kmh SW 15.0 mph24.1 kmh 30.07 in1018.3 mb - 0.00 in0.0 mm 0.00 in0.0 mm
01:00 PM 69.2°F20.7°C 62.4°F16.9°C 79% 6.9 mph SW11.1 kmh SW 11.5 mph18.5 kmh 30.07 in1018.3 mb - 0.00 in0.0 mm 0.00 in0.0 mm
01:10 PM 69.4°F20.8°C 63.0°F17.2°C 80% 8.1 mph W13.0 kmh W 13.8 mph22.2 kmh 30.06 in1017.9 mb - 0.00 in0.0 mm 0.00 in0.0 mm
01:20 PM 70.0°F21.1°C 63.2°F17.3°C 79% 6.9 mph WNW11.1 kmh WNW 9.2 mph14.8 kmh 30.06 in1017.9 mb - 0.00 in0.0 mm 0.00 in0.0 mm
01:30 PM 70.4°F21.3°C 63.2°F17.3°C 78% 6.9 mph W11.1 kmh W 11.5 mph18.5 kmh 30.06 in1017.9 mb - 0.00 in0.0 mm 0.00 in0.0 mm
01:40 PM 70.2°F21.2°C 63.0°F17.2°C 78% 8.1 mph WSW13.0 kmh WSW 12.7 mph20.4 kmh 30.06 in1017.9 mb - 0.00 in0.0 mm 0.00 in0.0 mm
01:50 PM 69.6°F20.9°C 63.1°F17.3°C 80% 9.2 mph SW14.8 kmh SW 13.8 mph22.2 kmh 30.06 in1017.9 mb - 0.00 in0.0 mm 0.00 in0.0 mm
02:00 PM 70.0°F21.1°C 63.2°F17.3°C 79% 8.1 mph NW13.0 kmh NW 16.1 mph25.9 kmh 30.05 in1017.6 mb - 0.00 in0.0 mm 0.00 in0.0 mm
02:10 PM 70.2°F21.2°C 63.4°F17.4°C 79% 8.1 mph W13.0 kmh W 13.8 mph22.2 kmh 30.05 in1017.6 mb - 0.00 in0.0 mm 0.00 in0.0 mm
02:20 PM 70.0°F21.1°C 63.2°F17.3°C 79% 8.1 mph W13.0 kmh W 16.1 mph25.9 kmh 30.05 in1017.6 mb - 0.00 in0.0 mm 0.00 in0.0 mm
02:30 PM 69.7°F20.9°C 63.3°F17.4°C 80% 9.2 mph W14.8 kmh W 16.1 mph25.9 kmh 30.05 in1017.6 mb - 0.00 in0.0 mm 0.00 in0.0 mm
02:40 PM 69.6°F20.9°C 63.2°F17.3°C 80% 8.1 mph W13.0 kmh W 12.7 mph20.4 kmh 30.05 in1017.6 mb - 0.00 in0.0 mm 0.00 in0.0 mm
02:50 PM 69.2°F20.7°C 62.8°F17.1°C 80% 9.2 mph W14.8 kmh W 12.7 mph20.4 kmh 30.05 in1017.6 mb - 0.00 in0.0 mm 0.00 in0.0 mm
03:00 PM 68.7°F20.4°C 62.6°F17.0°C 81% 10.4 mph W16.7 kmh W 19.6 mph31.5 kmh 30.04 in1017.3 mb - 0.00 in0.0 mm 0.00 in0.0 mm
03:10 PM 68.7°F20.4°C 62.9°F17.2°C 82% 10.4 mph WNW16.7 kmh WNW 15.0 mph24.1 kmh 30.04 in1017.3 mb - 0.00 in0.0 mm 0.00 in0.0 mm
03:20 PM 68.8°F20.4°C 62.7°F17.1°C 81% 6.9 mph W11.1 kmh W 9.2 mph14.8 kmh 30.05 in1017.6 mb - 0.00 in0.0 mm 0.00 in0.0 mm
03:30 PM 68.6°F20.3°C 62.5°F16.9°C 81% 6.9 mph WNW11.1 kmh WNW 12.7 mph20.4 kmh 30.04 in1017.3 mb - 0.00 in0.0 mm 0.00 in0.0 mm
03:40 PM 68.5°F20.3°C 62.4°F16.9°C 81% 9.2 mph WNW14.8 kmh WNW 20.7 mph33.3 kmh 30.03 in1016.9 mb - 0.00 in0.0 mm 0.00 in0.0 mm
03:50 PM 68.0°F20.0°C 61.9°F16.6°C 81% 8.1 mph W13.0 kmh W 12.7 mph20.4 kmh 30.03 in1016.9 mb - 0.00 in0.0 mm 0.00 in0.0 mm
04:00 PM 67.2°F19.6°C 61.5°F16.4°C 82% 10.4 mph NW16.7 kmh NW 13.8 mph22.2 kmh 30.03 in1016.9 mb - 0.00 in0.0 mm 0.00 in0.0 mm
04:10 PM 66.9°F19.4°C 61.6°F16.4°C 83% 10.4 mph NW16.7 kmh NW 15.0 mph24.1 kmh 30.03 in1016.9 mb - 0.00 in0.0 mm 0.00 in0.0 mm
04:20 PM 66.4°F19.1°C 61.4°F16.3°C 84% 6.9 mph W11.1 kmh W 11.5 mph18.5 kmh 30.03 in1016.9 mb - 0.00 in0.0 mm 0.00 in0.0 mm
04:30 PM 66.7°F19.3°C 61.7°F16.5°C 84% 8.1 mph WNW13.0 kmh WNW 13.8 mph22.2 kmh 30.02 in1016.6 mb - 0.00 in0.0 mm 0.00 in0.0 mm
04:40 PM 66.7°F19.3°C 61.4°F16.3°C 83% 9.2 mph W14.8 kmh W 15.0 mph24.1 kmh 30.02 in1016.6 mb - 0.00 in0.0 mm 0.00 in0.0 mm
04:50 PM 66.4°F19.1°C 61.1°F16.2°C 83% 8.1 mph WNW13.0 kmh WNW 13.8 mph22.2 kmh 30.02 in1016.6 mb - 0.00 in0.0 mm 0.00 in0.0 mm
05:00 PM 66.7°F19.3°C 61.4°F16.3°C 83% 10.4 mph NW16.7 kmh NW 16.1 mph25.9 kmh 30.02 in1016.6 mb - 0.00 in0.0 mm 0.00 in0.0 mm
05:10 PM 66.5°F19.2°C 61.2°F16.2°C 83% 6.9 mph SSW11.1 kmh SSW 8.1 mph13.0 kmh 30.01 in1016.3 mb - 0.00 in0.0 mm 0.00 in0.0 mm
05:20 PM 66.3°F19.1°C 61.0°F16.1°C 83% 6.9 mph WSW11.1 kmh WSW 12.7 mph20.4 kmh 30.01 in1016.3 mb - 0.00 in0.0 mm 0.00 in0.0 mm
05:30 PM 65.7°F18.7°C 60.7°F15.9°C 84% 10.4 mph W16.7 kmh W 16.1 mph25.9 kmh 30.01 in1016.3 mb - 0.00 in0.0 mm 0.00 in0.0 mm
05:40 PM 65.4°F18.6°C 60.4°F15.8°C 84% 10.4 mph WSW16.7 kmh WSW 13.8 mph22.2 kmh 30.01 in1016.3 mb - 0.00 in0.0 mm 0.00 in0.0 mm
05:50 PM 65.0°F18.3°C 60.1°F15.6°C 84% 8.1 mph NW13.0 kmh NW 9.2 mph14.8 kmh 30.01 in1016.3 mb - 0.00 in0.0 mm 0.00 in0.0 mm
06:00 PM 64.9°F18.3°C 59.9°F15.5°C 84% 9.2 mph W14.8 kmh W 13.8 mph22.2 kmh 30.01 in1016.3 mb - 0.00 in0.0 mm 0.00 in0.0 mm
06:10 PM 64.4°F18.0°C 59.5°F15.3°C 84% 8.1 mph W13.0 kmh W 16.1 mph25.9 kmh 30.01 in1016.3 mb - 0.00 in0.0 mm 0.00 in0.0 mm
06:20 PM 63.5°F17.5°C 59.3°F15.2°C 86% 9.2 mph WNW14.8 kmh WNW 13.8 mph22.2 kmh 30.01 in1016.3 mb - 0.00 in0.0 mm 0.00 in0.0 mm
06:30 PM 63.1°F17.3°C 58.9°F14.9°C 86% 8.1 mph W13.0 kmh W 16.1 mph25.9 kmh 30.01 in1016.3 mb - 0.00 in0.0 mm 0.00 in0.0 mm
06:40 PM 62.8°F17.1°C 58.8°F14.9°C 87% 9.2 mph WSW14.8 kmh WSW 16.1 mph25.9 kmh 30.01 in1016.3 mb - 0.00 in0.0 mm 0.00 in0.0 mm
06:50 PM 62.6°F17.0°C 58.7°F14.8°C 87% 8.1 mph WSW13.0 kmh WSW 12.7 mph20.4 kmh 30.01 in1016.3 mb - 0.00 in0.0 mm 0.00 in0.0 mm
07:00 PM 62.6°F17.0°C 58.7°F14.8°C 87% 8.1 mph NW13.0 kmh NW 16.1 mph25.9 kmh 30.01 in1016.3 mb - 0.00 in0.0 mm 0.00 in0.0 mm
07:10 PM 62.5°F16.9°C 58.6°F14.8°C 87% 5.8 mph W9.3 kmh W 8.1 mph13.0 kmh 30.02 in1016.6 mb - 0.00 in0.0 mm 0.00 in0.0 mm
07:20 PM 62.4°F16.9°C 58.5°F14.7°C 87% 5.8 mph NE9.3 kmh NE 12.7 mph20.4 kmh 30.01 in1016.3 mb - 0.00 in0.0 mm 0.00 in0.0 mm
07:30 PM 62.3°F16.8°C 58.4°F14.7°C 87% 5.8 mph WNW9.3 kmh WNW 9.2 mph14.8 kmh 30.01 in1016.3 mb - 0.00 in0.0 mm 0.00 in0.0 mm
07:40 PM 62.2°F16.8°C 58.6°F14.8°C 88% 4.6 mph SW7.4 kmh SW 8.1 mph13.0 kmh 30.02 in1016.6 mb - 0.00 in0.0 mm 0.00 in0.0 mm
07:50 PM 62.0°F16.7°C 58.4°F14.7°C 88% 6.9 mph WSW11.1 kmh WSW 11.5 mph18.5 kmh 30.02 in1016.6 mb - 0.00 in0.0 mm 0.00 in0.0 mm
08:00 PM 62.0°F16.7°C 58.4°F14.7°C 88% 5.8 mph W9.3 kmh W 8.1 mph13.0 kmh 30.02 in1016.6 mb - 0.00 in0.0 mm 0.00 in0.0 mm
08:10 PM 61.9°F16.6°C 58.3°F14.6°C 88% 2.3 mph WSW3.7 kmh WSW 8.1 mph13.0 kmh 30.02 in1016.6 mb - 0.00 in0.0 mm 0.00 in0.0 mm
08:20 PM 61.8°F16.6°C 58.2°F14.6°C 88% 4.6 mph SW7.4 kmh SW 9.2 mph14.8 kmh 30.03 in1016.9 mb - 0.00 in0.0 mm 0.00 in0.0 mm
08:30 PM 61.9°F16.6°C 58.3°F14.6°C 88% 5.8 mph NW9.3 kmh NW 8.1 mph13.0 kmh 30.03 in1016.9 mb - 0.00 in0.0 mm 0.00 in0.0 mm
08:40 PM 62.0°F16.7°C 58.4°F14.7°C 88% 5.8 mph SSW9.3 kmh SSW 11.5 mph18.5 kmh 30.03 in1016.9 mb - 0.00 in0.0 mm 0.00 in0.0 mm
08:50 PM 62.0°F16.7°C 58.4°F14.7°C 88% 4.6 mph W7.4 kmh W 9.2 mph14.8 kmh 30.03 in1016.9 mb - 0.00 in0.0 mm 0.00 in0.0 mm
09:00 PM 62.0°F16.7°C 58.4°F14.7°C 88% 2.3 mph S3.7 kmh S 4.6 mph7.4 kmh 30.03 in1016.9 mb - 0.00 in0.0 mm 0.00 in0.0 mm
09:10 PM 62.1°F16.7°C 58.5°F14.7°C 88% 3.5 mph WSW5.6 kmh WSW 6.9 mph11.1 kmh 30.03 in1016.9 mb - 0.00 in0.0 mm 0.00 in0.0 mm
09:20 PM 62.2°F16.8°C 58.6°F14.8°C 88% 3.5 mph WSW5.6 kmh WSW 5.8 mph9.3 kmh 30.03 in1016.9 mb - 0.00 in0.0 mm 0.00 in0.0 mm
09:30 PM 62.3°F16.8°C 58.7°F14.8°C 88% 4.6 mph WNW7.4 kmh WNW 8.1 mph13.0 kmh 30.03 in1016.9 mb - 0.00 in0.0 mm 0.00 in0.0 mm
09:40 PM 62.4°F16.9°C 58.8°F14.9°C 88% 2.3 mph S3.7 kmh S 5.8 mph9.3 kmh 30.03 in1016.9 mb - 0.00 in0.0 mm 0.00 in0.0 mm
09:50 PM 62.5°F16.9°C 58.9°F14.9°C 88% 4.6 mph SSW7.4 kmh SSW 8.1 mph13.0 kmh 30.02 in1016.6 mb - 0.00 in0.0 mm 0.00 in0.0 mm
10:00 PM 62.5°F16.9°C 58.9°F14.9°C 88% 5.8 mph SW9.3 kmh SW 8.1 mph13.0 kmh 30.02 in1016.6 mb - 0.00 in0.0 mm 0.00 in0.0 mm
10:10 PM 62.5°F16.9°C 58.9°F14.9°C 88% 4.6 mph N7.4 kmh N 8.1 mph13.0 kmh 30.02 in1016.6 mb - 0.00 in0.0 mm 0.00 in0.0 mm
10:20 PM 62.6°F17.0°C 58.7°F14.8°C 87% 4.6 mph W7.4 kmh W 9.2 mph14.8 kmh 30.02 in1016.6 mb - 0.00 in0.0 mm 0.00 in0.0 mm
10:30 PM 62.5°F16.9°C 58.6°F14.8°C 87% 4.6 mph NW7.4 kmh NW 8.1 mph13.0 kmh 30.02 in1016.6 mb - 0.00 in0.0 mm 0.00 in0.0 mm
10:40 PM 62.3°F16.8°C 58.4°F14.7°C 87% 5.8 mph WNW9.3 kmh WNW 9.2 mph14.8 kmh 30.02 in1016.6 mb - 0.00 in0.0 mm 0.00 in0.0 mm
10:50 PM 62.1°F16.7°C 58.2°F14.6°C 87% 4.6 mph WSW7.4 kmh WSW 6.9 mph11.1 kmh 30.02 in1016.6 mb - 0.00 in0.0 mm 0.00 in0.0 mm
11:00 PM 62.0°F16.7°C 58.1°F14.5°C 87% 1.2 mph SW1.9 kmh SW 2.3 mph3.7 kmh 30.02 in1016.6 mb - 0.00 in0.0 mm 0.00 in0.0 mm
11:10 PM 61.8°F16.6°C 58.2°F14.6°C 88% 3.5 mph SW5.6 kmh SW 8.1 mph13.0 kmh 30.02 in1016.6 mb - 0.00 in0.0 mm 0.00 in0.0 mm
11:20 PM 61.7°F16.5°C 58.1°F14.5°C 88% 3.5 mph WNW5.6 kmh WNW 6.9 mph11.1 kmh 30.02 in1016.6 mb - 0.00 in0.0 mm 0.00 in0.0 mm
11:30 PM 61.9°F16.6°C 58.3°F14.6°C 88% 2.3 mph WNW3.7 kmh WNW 5.8 mph9.3 kmh 30.02 in1016.6 mb - 0.00 in0.0 mm 0.00 in0.0 mm
11:40 PM 62.1°F16.7°C 58.5°F14.7°C 88% 3.5 mph W5.6 kmh W 8.1 mph13.0 kmh 30.02 in1016.6 mb - 0.00 in0.0 mm 0.00 in0.0 mm
11:50 PM 62.2°F16.8°C 58.6°F14.8°C 88% 3.5 mph SW5.6 kmh SW 4.6 mph7.4 kmh 30.02 in1016.6 mb - 0.00 in0.0 mm 0.00 in0.0 mm